sensor_id;sensor_type;location;lat;lon;timestamp;pressure;altitude;pressure_sealevel;temperature;humidity
39823;BME280;25499;53.958;10.970;2022-09-12T04:19:44;101645.41;;;8.25;100.00
39823;BME280;25499;53.958;10.970;2022-09-12T04:22:09;101640.25;;;8.26;100.00
39823;BME280;25499;53.958;10.970;2022-09-12T04:24:35;101627.97;;;8.17;100.00
39823;BME280;25499;53.958;10.970;2022-09-12T04:27:00;101633.91;;;8.12;100.00
39823;BME280;25499;53.958;10.970;2022-09-12T04:29:25;101641.84;;;8.19;100.00
39823;BME280;25499;53.958;10.970;2022-09-12T04:36:56;101646.25;;;8.24;100.00
39823;BME280;25499;53.958;10.970;2022-09-12T04:39:22;101637.56;;;8.21;100.00
39823;BME280;25499;53.958;10.970;2022-09-12T04:41:47;101638.38;;;8.19;99.70
39823;BME280;25499;53.958;10.970;2022-09-12T04:44:13;101639.41;;;8.27;100.00
39823;BME280;25499;53.958;10.970;2022-09-12T04:46:44;101632.28;;;8.17;99.88
39823;BME280;25499;53.958;10.970;2022-09-12T04:49:11;101635.66;;;8.14;99.86
39823;BME280;25499;53.958;10.970;2022-09-12T04:51:39;101638.22;;;8.13;100.00
39823;BME280;25499;53.958;10.970;2022-09-12T04:54:14;101646.09;;;8.16;100.00
39823;BME280;25499;53.958;10.970;2022-09-12T04:56:41;101635.94;;;8.27;100.00
39823;BME280;25499;53.958;10.970;2022-09-12T04:59:08;101640.22;;;8.25;100.00
39823;BME280;25499;53.958;10.970;2022-09-12T05:01:34;101650.66;;;8.28;100.00
39823;BME280;25499;53.958;10.970;2022-09-12T05:04:00;101646.38;;;8.30;100.00
39823;BME280;25499;53.958;10.970;2022-09-12T05:06:28;101643.22;;;8.43;100.00
39823;BME280;25499;53.958;10.970;2022-09-12T05:08:55;101652.78;;;8.46;100.00
39823;BME280;25499;53.958;10.970;2022-09-12T05:11:24;101649.09;;;8.36;100.00
39823;BME280;25499;53.958;10.970;2022-09-12T05:13:49;101653.00;;;8.56;100.00
39823;BME280;25499;53.958;10.970;2022-09-12T05:16:16;101648.47;;;8.46;100.00
39823;BME280;25499;53.958;10.970;2022-09-12T05:18:43;101652.75;;;8.44;100.00
39823;BME280;25499;53.958;10.970;2022-09-12T05:21:14;101658.09;;;8.52;100.00
39823;BME280;25499;53.958;10.970;2022-09-12T05:23:40;101653.69;;;8.48;100.00
39823;BME280;25499;53.958;10.970;2022-09-12T05:26:07;101645.28;;;8.59;100.00
39823;BME280;25499;53.958;10.970;2022-09-12T05:28:35;101644.44;;;8.61;100.00
39823;BME280;25499;53.958;10.970;2022-09-12T05:33:30;101650.03;;;8.82;100.00
39823;BME280;25499;53.958;10.970;2022-09-12T05:35:56;101647.63;;;8.91;100.00
39823;BME280;25499;53.958;10.970;2022-09-12T05:38:21;101643.06;;;9.28;100.00
39823;BME280;25499;53.958;10.970;2022-09-12T05:40:49;101656.38;;;9.50;100.00
39823;BME280;25499;53.958;10.970;2022-09-12T05:43:15;101649.56;;;9.57;100.00
39823;BME280;25499;53.958;10.970;2022-09-12T05:45:41;101652.59;;;9.86;100.00
39823;BME280;25499;53.958;10.970;2022-09-12T05:48:06;101650.09;;;9.94;100.00
39823;BME280;25499;53.958;10.970;2022-09-12T05:50:32;101654.66;;;10.08;100.00
39823;BME280;25499;53.958;10.970;2022-09-12T05:52:57;101657.41;;;10.21;100.00
39823;BME280;25499;53.958;10.970;2022-09-12T06:00:33;101652.97;;;10.12;100.00
39823;BME280;25499;53.958;10.970;2022-09-12T06:03:02;101653.09;;;10.23;100.00
39823;BME280;25499;53.958;10.970;2022-09-12T06:05:27;101663.88;;;10.49;100.00
39823;BME280;25499;53.958;10.970;2022-09-12T06:07:53;101657.03;;;10.57;100.00
39823;BME280;25499;53.958;10.970;2022-09-12T06:10:23;101658.88;;;10.66;100.00
39823;BME280;25499;53.958;10.970;2022-09-12T06:12:50;101655.63;;;10.89;100.00
39823;BME280;25499;53.958;10.970;2022-09-12T06:15:15;101657.56;;;11.11;100.00
39823;BME280;25499;53.958;10.970;2022-09-12T06:17:41;101653.41;;;11.30;100.00
39823;BME280;25499;53.958;10.970;2022-09-12T06:20:06;101654.34;;;11.42;100.00
39823;BME280;25499;53.958;10.970;2022-09-12T06:22:32;101653.56;;;11.50;100.00
39823;BME280;25499;53.958;10.970;2022-09-12T06:24:57;101658.88;;;11.66;100.00
39823;BME280;25499;53.958;10.970;2022-09-12T06:27:23;101656.34;;;11.73;100.00
39823;BME280;25499;53.958;10.970;2022-09-12T06:29:48;101651.19;;;11.86;100.00
39823;BME280;25499;53.958;10.970;2022-09-12T06:32:13;101650.47;;;12.10;100.00
39823;BME280;25499;53.958;10.970;2022-09-12T06:34:39;101650.53;;;12.19;100.00
39823;BME280;25499;53.958;10.970;2022-09-12T06:37:04;101651.47;;;12.29;100.00
39823;BME280;25499;53.958;10.970;2022-09-12T06:39:30;101647.16;;;12.46;100.00
39823;BME280;25499;53.958;10.970;2022-09-12T06:41:56;101655.13;;;12.91;100.00
39823;BME280;25499;53.958;10.970;2022-09-12T06:44:22;101649.91;;;13.11;100.00
39823;BME280;25499;53.958;10.970;2022-09-12T06:46:48;101653.41;;;13.15;100.00
39823;BME280;25499;53.958;10.970;2022-09-12T06:49:15;101649.06;;;13.32;100.00
39823;BME280;25499;53.958;10.970;2022-09-12T06:51:41;101653.41;;;13.64;99.66
39823;BME280;25499;53.958;10.970;2022-09-12T06:54:08;101650.81;;;13.66;99.12
39823;BME280;25499;53.958;10.970;2022-09-12T06:56:33;101656.06;;;13.49;99.28
39823;BME280;25499;53.958;10.970;2022-09-12T06:58:58;101658.69;;;13.55;99.63
39823;BME280;25499;53.958;10.970;2022-09-12T07:01:29;101657.78;;;13.87;99.25
39823;BME280;25499;53.958;10.970;2022-09-12T07:04:04;101653.25;;;14.30;98.32
39823;BME280;25499;53.958;10.970;2022-09-12T07:06:40;101664.59;;;14.34;96.66
39823;BME280;25499;53.958;10.970;2022-09-12T07:09:10;101663.78;;;14.20;96.88
39823;BME280;25499;53.958;10.970;2022-09-12T07:11:38;101664.50;;;14.60;97.59
39823;BME280;25499;53.958;10.970;2022-09-12T07:14:05;101658.38;;;14.63;95.24
39823;BME280;25499;53.958;10.970;2022-09-12T07:16:30;101660.88;;;14.80;94.63
39823;BME280;25499;53.958;10.970;2022-09-12T07:18:58;101666.94;;;14.94;93.61
39823;BME280;25499;53.958;10.970;2022-09-12T07:21:25;101667.03;;;14.76;94.24
39823;BME280;25499;53.958;10.970;2022-09-12T07:23:51;101661.72;;;14.86;94.49
39823;BME280;25499;53.958;10.970;2022-09-12T07:26:17;101662.44;;;15.10;93.60
39823;BME280;25499;53.958;10.970;2022-09-12T07:28:43;101668.53;;;15.12;92.46
39823;BME280;25499;53.958;10.970;2022-09-12T07:31:14;101660.69;;;15.12;92.53
39823;BME280;25499;53.958;10.970;2022-09-12T07:33:41;101664.66;;;15.61;92.23
39823;BME280;25499;53.958;10.970;2022-09-12T07:36:14;101656.72;;;15.69;90.63
39823;BME280;25499;53.958;10.970;2022-09-12T07:38:41;101661.88;;;15.75;89.87
39823;BME280;25499;53.958;10.970;2022-09-12T07:41:18;101665.47;;;15.67;90.72
39823;BME280;25499;53.958;10.970;2022-09-12T07:43:44;101665.81;;;16.19;90.52
39823;BME280;25499;53.958;10.970;2022-09-12T07:46:09;101670.41;;;16.03;88.67
39823;BME280;25499;53.958;10.970;2022-09-12T07:48:36;101672.16;;;16.04;88.51
39823;BME280;25499;53.958;10.970;2022-09-12T07:51:09;101661.53;;;16.13;88.29
39823;BME280;25499;53.958;10.970;2022-09-12T07:53:37;101668.03;;;16.53;88.40
39823;BME280;25499;53.958;10.970;2022-09-12T07:56:04;101661.81;;;16.60;86.25
39823;BME280;25499;53.958;10.970;2022-09-12T07:58:32;101667.81;;;16.68;85.42
39823;BME280;25499;53.958;10.970;2022-09-12T08:01:18;101660.69;;;16.76;84.42
39823;BME280;25499;53.958;10.970;2022-09-12T08:03:45;101660.63;;;16.84;84.25
39823;BME280;25499;53.958;10.970;2022-09-12T08:06:18;101662.34;;;16.87;83.71
39823;BME280;25499;53.958;10.970;2022-09-12T08:08:44;101672.22;;;17.30;85.35
39823;BME280;25499;53.958;10.970;2022-09-12T08:11:12;101660.59;;;17.43;82.49
39823;BME280;25499;53.958;10.970;2022-09-12T08:13:40;101655.06;;;17.59;81.12
39823;BME280;25499;53.958;10.970;2022-09-12T08:16:09;101671.41;;;17.76;82.68
39823;BME280;25499;53.958;10.970;2022-09-12T08:18:36;101650.63;;;17.61;80.16
39823;BME280;25499;53.958;10.970;2022-09-12T08:21:05;101657.53;;;18.16;79.93
39823;BME280;25499;53.958;10.970;2022-09-12T08:23:31;101663.03;;;18.46;79.57
39823;BME280;25499;53.958;10.970;2022-09-12T08:26:01;101649.63;;;18.16;76.03
39823;BME280;25499;53.958;10.970;2022-09-12T08:28:27;101650.09;;;18.35;76.91
39823;BME280;25499;53.958;10.970;2022-09-12T08:30:54;101644.69;;;18.41;76.69
39823;BME280;25499;53.958;10.970;2022-09-12T08:33:24;101639.13;;;18.94;75.27
39823;BME280;25499;53.958;10.970;2022-09-12T08:35:51;101631.28;;;19.27;73.59
39823;BME280;25499;53.958;10.970;2022-09-12T08:38:16;101629.50;;;19.62;72.58
39823;BME280;25499;53.958;10.970;2022-09-12T08:40:59;101615.25;;;19.68;71.45
39823;BME280;25499;53.958;10.970;2022-09-12T08:46:28;101611.91;;;19.94;67.67
39823;BME280;25499;53.958;10.970;2022-09-12T08:48:57;101620.16;;;20.15;69.28
39823;BME280;25499;53.958;10.970;2022-09-12T08:51:25;101611.31;;;19.50;65.69
39823;BME280;25499;53.958;10.970;2022-09-12T08:53:52;101617.31;;;19.91;66.76
39823;BME280;25499;53.958;10.970;2022-09-12T08:56:20;101620.41;;;20.05;67.15
39823;BME280;25499;53.958;10.970;2022-09-12T08:58:47;101616.88;;;20.06;66.54
39823;BME280;25499;53.958;10.970;2022-09-12T09:15:06;101594.28;;;21.09;61.20
39823;BME280;25499;53.958;10.970;2022-09-12T09:17:41;101585.53;;;20.80;59.87
39823;BME280;25499;53.958;10.970;2022-09-12T09:22:49;101586.44;;;21.06;60.99
39823;BME280;25499;53.958;10.970;2022-09-12T09:25:21;101586.00;;;21.20;60.97
39823;BME280;25499;53.958;10.970;2022-09-12T09:28:01;101591.28;;;21.45;61.01
39823;BME280;25499;53.958;10.970;2022-09-12T09:30:28;101591.97;;;21.52;60.05
39823;BME280;25499;53.958;10.970;2022-09-12T09:32:57;101591.50;;;21.39;61.28
39823;BME280;25499;53.958;10.970;2022-09-12T09:38:13;101590.72;;;22.34;59.19
39823;BME280;25499;53.958;10.970;2022-09-12T09:43:27;101588.28;;;22.05;59.62
39823;BME280;25499;53.958;10.970;2022-09-12T09:45:53;101572.34;;;22.28;56.89
39823;BME280;25499;53.958;10.970;2022-09-12T09:48:24;101586.13;;;22.14;56.99
39823;BME280;25499;53.958;10.970;2022-09-12T09:50:52;101566.72;;;22.38;56.13
39823;BME280;25499;53.958;10.970;2022-09-12T09:53:48;101561.72;;;21.83;55.90
39823;BME280;25499;53.958;10.970;2022-09-12T09:56:35;101557.34;;;22.29;55.33
39823;BME280;25499;53.958;10.970;2022-09-12T09:59:25;101570.84;;;22.45;56.29
39823;BME280;25499;53.958;10.970;2022-09-12T10:04:40;101553.91;;;22.25;54.94
39823;BME280;25499;53.958;10.970;2022-09-12T10:07:17;101549.69;;;22.20;55.71
39823;BME280;25499;53.958;10.970;2022-09-12T10:10:12;101559.44;;;23.07;55.58
39823;BME280;25499;53.958;10.970;2022-09-12T10:12:38;101542.34;;;22.92;54.61
39823;BME280;25499;53.958;10.970;2022-09-12T10:17:43;101536.41;;;23.49;52.34
39823;BME280;25499;53.958;10.970;2022-09-12T10:20:41;101531.78;;;23.92;51.55
39823;BME280;25499;53.958;10.970;2022-09-12T10:26:03;101522.69;;;24.71;48.75
39823;BME280;25499;53.958;10.970;2022-09-12T10:28:44;101516.97;;;23.47;50.35
39823;BME280;25499;53.958;10.970;2022-09-12T10:31:22;101524.16;;;23.45;51.54
39823;BME280;25499;53.958;10.970;2022-09-12T10:33:55;101518.72;;;24.07;50.68
39823;BME280;25499;53.958;10.970;2022-09-12T10:36:22;101525.38;;;24.71;50.37
39823;BME280;25499;53.958;10.970;2022-09-12T10:38:50;101519.53;;;23.90;51.63
39823;BME280;25499;53.958;10.970;2022-09-12T10:41:16;101509.72;;;23.11;52.00
39823;BME280;25499;53.958;10.970;2022-09-12T10:43:42;101508.22;;;22.41;53.78
39823;BME280;25499;53.958;10.970;2022-09-12T10:48:43;101524.50;;;23.77;52.08
39823;BME280;25499;53.958;10.970;2022-09-12T10:54:10;101504.28;;;25.01;48.95
39823;BME280;25499;53.958;10.970;2022-09-12T10:56:59;101516.72;;;25.36;49.59
39823;BME280;25499;53.958;10.970;2022-09-12T11:05:08;101484.94;;;26.60;44.20
39823;BME280;25499;53.958;10.970;2022-09-12T11:07:44;101496.94;;;27.85;44.40
39823;BME280;25499;53.958;10.970;2022-09-12T11:21:11;101470.13;;;25.09;46.88
39823;BME280;25499;53.958;10.970;2022-09-12T11:26:58;101484.94;;;25.98;46.89
39823;BME280;25499;53.958;10.970;2022-09-12T11:29:57;101464.22;;;24.33;48.05
39823;BME280;25499;53.958;10.970;2022-09-12T11:35:23;101485.34;;;24.90;50.29
39823;BME280;25499;53.958;10.970;2022-09-12T11:40:33;101462.88;;;25.94;46.88
39823;BME280;25499;53.958;10.970;2022-09-12T11:46:03;101448.47;;;24.28;49.29
39823;BME280;25499;53.958;10.970;2022-09-12T11:48:44;101470.41;;;25.38;48.99
39823;BME280;25499;53.958;10.970;2022-09-12T11:51:23;101458.22;;;24.99;49.88
39823;BME280;25499;53.958;10.970;2022-09-12T11:53:58;101453.81;;;24.98;49.00
39823;BME280;25499;53.958;10.970;2022-09-12T11:56:26;101452.16;;;24.26;50.53
39823;BME280;25499;53.958;10.970;2022-09-12T11:58:58;101452.31;;;24.23;51.80
39823;BME280;25499;53.958;10.970;2022-09-12T12:01:40;101458.34;;;23.69;52.67
39823;BME280;25499;53.958;10.970;2022-09-12T12:04:11;101459.97;;;23.92;53.59
39823;BME280;25499;53.958;10.970;2022-09-12T12:07:00;101454.19;;;23.44;52.29
39823;BME280;25499;53.958;10.970;2022-09-12T12:09:27;101442.22;;;22.74;52.88
39823;BME280;25499;53.958;10.970;2022-09-12T12:11:56;101446.09;;;23.08;53.96
39823;BME280;25499;53.958;10.970;2022-09-12T12:16:53;101448.69;;;21.80;56.09
39823;BME280;25499;53.958;10.970;2022-09-12T12:19:31;101451.34;;;21.80;56.80
39823;BME280;25499;53.958;10.970;2022-09-12T12:22:05;101458.50;;;21.78;58.27
39823;BME280;25499;53.958;10.970;2022-09-12T12:24:31;101450.59;;;21.76;57.38
39823;BME280;25499;53.958;10.970;2022-09-12T12:27:03;101446.34;;;21.94;56.98
39823;BME280;25499;53.958;10.970;2022-09-12T12:29:42;101450.13;;;21.65;58.53
39823;BME280;25499;53.958;10.970;2022-09-12T12:32:17;101446.28;;;21.50;58.44
39823;BME280;25499;53.958;10.970;2022-09-12T12:34:45;101457.38;;;21.84;58.79
39823;BME280;25499;53.958;10.970;2022-09-12T12:40:23;101450.53;;;21.78;58.81
39823;BME280;25499;53.958;10.970;2022-09-12T12:42:56;101434.78;;;21.51;57.81
39823;BME280;25499;53.958;10.970;2022-09-12T12:48:01;101435.72;;;21.72;58.62
39823;BME280;25499;53.958;10.970;2022-09-12T12:50:33;101432.63;;;21.61;58.85
39823;BME280;25499;53.958;10.970;2022-09-12T12:55:56;101423.41;;;20.99;59.04
39823;BME280;25499;53.958;10.970;2022-09-12T12:58:33;101430.00;;;20.87;60.50
39823;BME280;25499;53.958;10.970;2022-09-12T13:03:31;101425.72;;;20.84;58.78
39823;BME280;25499;53.958;10.970;2022-09-12T13:06:02;101432.22;;;20.99;59.53
39823;BME280;25499;53.958;10.970;2022-09-12T13:08:32;101419.94;;;21.22;60.07
39823;BME280;25499;53.958;10.970;2022-09-12T13:11:06;101422.53;;;21.23;59.61
39823;BME280;25499;53.958;10.970;2022-09-12T13:16:33;101410.41;;;21.16;59.25
39823;BME280;25499;53.958;10.970;2022-09-12T13:19:26;101405.13;;;21.40;60.08
39823;BME280;25499;53.958;10.970;2022-09-12T13:28:41;101390.25;;;20.63;60.42
39823;BME280;25499;53.958;10.970;2022-09-12T13:31:24;101392.66;;;20.71;61.12
39823;BME280;25499;53.958;10.970;2022-09-12T13:33:52;101385.13;;;20.59;61.57
39823;BME280;25499;53.958;10.970;2022-09-12T13:44:19;101387.41;;;20.95;61.85
39823;BME280;25499;53.958;10.970;2022-09-12T13:46:46;101383.06;;;20.92;61.74
39823;BME280;25499;53.958;10.970;2022-09-12T13:49:34;101385.78;;;21.14;61.38
39823;BME280;25499;53.958;10.970;2022-09-12T13:52:04;101371.84;;;21.09;61.80
39823;BME280;25499;53.958;10.970;2022-09-12T13:54:32;101369.78;;;20.94;62.07
39823;BME280;25499;53.958;10.970;2022-09-12T13:56:58;101360.94;;;20.70;61.79
39823;BME280;25499;53.958;10.970;2022-09-12T13:59:24;101366.22;;;20.70;62.39
39823;BME280;25499;53.958;10.970;2022-09-12T14:01:50;101366.44;;;20.62;63.29
39823;BME280;25499;53.958;10.970;2022-09-12T14:04:19;101358.25;;;20.44;62.68
39823;BME280;25499;53.958;10.970;2022-09-12T14:07:15;101372.38;;;20.70;63.82
39823;BME280;25499;53.958;10.970;2022-09-12T14:09:44;101348.66;;;20.67;63.09
39823;BME280;25499;53.958;10.970;2022-09-12T14:12:21;101346.78;;;20.45;63.78
39823;BME280;25499;53.958;10.970;2022-09-12T14:14:53;101341.50;;;20.71;63.09
39823;BME280;25499;53.958;10.970;2022-09-12T14:17:26;101346.88;;;20.93;62.93
39823;BME280;25499;53.958;10.970;2022-09-12T14:19:55;101349.44;;;20.94;63.72
39823;BME280;25499;53.958;10.970;2022-09-12T14:22:23;101328.44;;;20.39;63.59
39823;BME280;25499;53.958;10.970;2022-09-12T14:24:54;101337.41;;;20.60;63.66
39823;BME280;25499;53.958;10.970;2022-09-12T14:27:30;101333.03;;;20.34;63.69
39823;BME280;25499;53.958;10.970;2022-09-12T14:30:19;101328.78;;;20.30;64.34
39823;BME280;25499;53.958;10.970;2022-09-12T14:35:29;101318.97;;;20.07;64.05
39823;BME280;25499;53.958;10.970;2022-09-12T14:37:56;101328.66;;;20.33;64.21
39823;BME280;25499;53.958;10.970;2022-09-12T14:40:30;101320.16;;;20.25;64.62
39823;BME280;25499;53.958;10.970;2022-09-12T14:42:55;101320.06;;;20.26;65.67
39823;BME280;25499;53.958;10.970;2022-09-12T14:45:28;101323.78;;;20.21;65.09
39823;BME280;25499;53.958;10.970;2022-09-12T14:47:54;101322.47;;;20.07;65.41
39823;BME280;25499;53.958;10.970;2022-09-12T14:50:23;101329.69;;;20.02;66.50
39823;BME280;25499;53.958;10.970;2022-09-12T14:56:06;101318.78;;;20.13;65.18
39823;BME280;25499;53.958;10.970;2022-09-12T14:58:33;101325.22;;;20.04;66.49
39823;BME280;25499;53.958;10.970;2022-09-12T15:01:01;101316.09;;;19.88;65.85
39823;BME280;25499;53.958;10.970;2022-09-12T15:05:54;101314.16;;;20.20;66.17
39823;BME280;25499;53.958;10.970;2022-09-12T15:08:19;101306.72;;;20.04;64.93
39823;BME280;25499;53.958;10.970;2022-09-12T15:10:45;101299.97;;;19.96;65.07
39823;BME280;25499;53.958;10.970;2022-09-12T15:13:17;101303.28;;;20.02;65.86
39823;BME280;25499;53.958;10.970;2022-09-12T15:15:54;101313.94;;;19.99;66.05
39823;BME280;25499;53.958;10.970;2022-09-12T15:18:23;101308.47;;;20.05;66.41
39823;BME280;25499;53.958;10.970;2022-09-12T15:21:01;101316.81;;;19.93;66.18
39823;BME280;25499;53.958;10.970;2022-09-12T15:23:45;101308.66;;;19.99;65.93
39823;BME280;25499;53.958;10.970;2022-09-12T15:26:13;101309.88;;;19.89;66.49
39823;BME280;25499;53.958;10.970;2022-09-12T15:28:39;101301.75;;;19.95;66.93
39823;BME280;25499;53.958;10.970;2022-09-12T15:31:26;101304.81;;;19.83;67.59
39823;BME280;25499;53.958;10.970;2022-09-12T15:33:52;101308.25;;;19.85;66.38
39823;BME280;25499;53.958;10.970;2022-09-12T15:36:19;101298.22;;;19.96;67.54
39823;BME280;25499;53.958;10.970;2022-09-12T15:38:46;101296.47;;;19.95;66.03
39823;BME280;25499;53.958;10.970;2022-09-12T15:41:15;101299.72;;;20.03;67.29
39823;BME280;25499;53.958;10.970;2022-09-12T15:43:40;101285.28;;;19.87;65.66
39823;BME280;25499;53.958;10.970;2022-09-12T15:46:08;101287.63;;;19.96;66.00
39823;BME280;25499;53.958;10.970;2022-09-12T15:48:34;101286.00;;;19.92;65.99
39823;BME280;25499;53.958;10.970;2022-09-12T15:50:59;101282.34;;;19.96;66.49
39823;BME280;25499;53.958;10.970;2022-09-12T15:53:26;101289.06;;;20.06;66.55
39823;BME280;25499;53.958;10.970;2022-09-12T15:55:51;101279.84;;;19.91;67.14
39823;BME280;25499;53.958;10.970;2022-09-12T15:58:17;101278.78;;;19.97;66.15
39823;BME280;25499;53.958;10.970;2022-09-12T16:00:42;101281.78;;;19.86;67.06
39823;BME280;25499;53.958;10.970;2022-09-12T16:03:20;101270.13;;;19.92;66.73
39823;BME280;25499;53.958;10.970;2022-09-12T16:05:46;101266.59;;;19.93;66.40
39823;BME280;25499;53.958;10.970;2022-09-12T16:08:11;101271.41;;;19.80;68.31
39823;BME280;25499;53.958;10.970;2022-09-12T16:10:36;101266.94;;;19.82;66.55
39823;BME280;25499;53.958;10.970;2022-09-12T16:13:02;101255.84;;;19.71;67.06
39823;BME280;25499;53.958;10.970;2022-09-12T16:15:28;101262.13;;;19.67;67.11
39823;BME280;25499;53.958;10.970;2022-09-12T16:17:54;101265.66;;;19.67;67.80
39823;BME280;25499;53.958;10.970;2022-09-12T16:20:20;101250.00;;;19.61;67.70
39823;BME280;25499;53.958;10.970;2022-09-12T16:22:46;101244.91;;;19.55;68.16
39823;BME280;25499;53.958;10.970;2022-09-12T16:25:12;101250.31;;;19.52;69.00
39823;BME280;25499;53.958;10.970;2022-09-12T16:27:37;101242.88;;;19.63;67.95
39823;BME280;25499;53.958;10.970;2022-09-12T16:30:05;101234.22;;;19.31;69.94
39823;BME280;25499;53.958;10.970;2022-09-12T16:32:31;101228.75;;;19.37;69.70
39823;BME280;25499;53.958;10.970;2022-09-12T16:34:57;101231.56;;;19.31;71.07
39823;BME280;25499;53.958;10.970;2022-09-12T16:37:22;101226.06;;;19.39;70.27
39823;BME280;25499;53.958;10.970;2022-09-12T16:39:47;101218.69;;;19.22;69.88
39823;BME280;25499;53.958;10.970;2022-09-12T16:42:15;101218.97;;;19.13;70.99
39823;BME280;25499;53.958;10.970;2022-09-12T16:44:43;101219.06;;;19.10;70.57
39823;BME280;25499;53.958;10.970;2022-09-12T16:47:08;101222.44;;;19.15;71.67
39823;BME280;25499;53.958;10.970;2022-09-12T16:49:34;101216.75;;;18.99;71.15
39823;BME280;25499;53.958;10.970;2022-09-12T16:51:59;101213.50;;;18.91;71.88
39823;BME280;25499;53.958;10.970;2022-09-12T16:54:24;101213.16;;;19.01;70.88
39823;BME280;25499;53.958;10.970;2022-09-12T16:56:52;101210.47;;;19.03;71.23
39823;BME280;25499;53.958;10.970;2022-09-12T16:59:17;101211.00;;;18.86;72.80
39823;BME280;25499;53.958;10.970;2022-09-12T17:01:42;101208.53;;;18.78;72.91
39823;BME280;25499;53.958;10.970;2022-09-12T17:04:09;101206.19;;;18.69;72.73
39823;BME280;25499;53.958;10.970;2022-09-12T17:06:36;101205.06;;;18.78;73.32
39823;BME280;25499;53.958;10.970;2022-09-12T17:09:02;101206.34;;;18.63;73.36
39823;BME280;25499;53.958;10.970;2022-09-12T17:11:31;101207.50;;;18.54;75.02
39823;BME280;25499;53.958;10.970;2022-09-12T17:13:58;101205.63;;;18.58;74.28
39823;BME280;25499;53.958;10.970;2022-09-12T17:16:24;101209.41;;;18.49;75.37
39823;BME280;25499;53.958;10.970;2022-09-12T17:18:51;101207.66;;;18.48;76.14
39823;BME280;25499;53.958;10.970;2022-09-12T17:21:17;101208.56;;;18.49;75.92
39823;BME280;25499;53.958;10.970;2022-09-12T17:23:42;101213.28;;;18.36;75.71
39823;BME280;25499;53.958;10.970;2022-09-12T17:26:09;101213.50;;;18.30;76.83
39823;BME280;25499;53.958;10.970;2022-09-12T17:28:35;101210.28;;;18.18;78.20
39823;BME280;25499;53.958;10.970;2022-09-12T17:31:03;101212.09;;;18.16;78.19
39823;BME280;25499;53.958;10.970;2022-09-12T17:33:29;101210.47;;;18.11;79.16
39823;BME280;25499;53.958;10.970;2022-09-12T17:35:59;101212.28;;;18.41;79.20
39823;BME280;25499;53.958;10.970;2022-09-12T17:38:25;101210.53;;;18.40;77.63
39823;BME280;25499;53.958;10.970;2022-09-12T17:40:50;101206.19;;;18.38;77.41
39823;BME280;25499;53.958;10.970;2022-09-12T17:43:17;101196.31;;;18.46;76.05
39823;BME280;25499;53.958;10.970;2022-09-12T17:45:43;101194.44;;;18.50;76.34
39823;BME280;25499;53.958;10.970;2022-09-12T17:48:20;101197.47;;;18.36;77.57
39823;BME280;25499;53.958;10.970;2022-09-12T17:50:45;101194.63;;;18.12;78.34
39823;BME280;25499;53.958;10.970;2022-09-12T17:53:12;101195.94;;;18.29;78.21
39823;BME280;25499;53.958;10.970;2022-09-12T17:55:37;101199.81;;;18.15;78.76
39823;BME280;25499;53.958;10.970;2022-09-12T17:58:03;101198.53;;;17.97;79.11
39823;BME280;25499;53.958;10.970;2022-09-12T18:00:29;101196.19;;;17.85;79.67
39823;BME280;25499;53.958;10.970;2022-09-12T18:03:14;101196.00;;;17.94;79.87
39823;BME280;25499;53.958;10.970;2022-09-12T18:05:53;101191.50;;;17.98;79.41
39823;BME280;25499;53.958;10.970;2022-09-12T18:08:23;101187.69;;;18.10;79.84
39823;BME280;25499;53.958;10.970;2022-09-12T18:10:50;101181.41;;;17.79;80.37
39823;BME280;25499;53.958;10.970;2022-09-12T18:13:16;101185.63;;;17.88;80.51
39823;BME280;25499;53.958;10.970;2022-09-12T18:15:41;101184.06;;;17.79;80.94
39823;BME280;25499;53.958;10.970;2022-09-12T18:18:07;101181.50;;;17.76;81.22
39823;BME280;25499;53.958;10.970;2022-09-12T18:20:32;101178.25;;;17.65;81.79
39823;BME280;25499;53.958;10.970;2022-09-12T18:22:58;101178.03;;;17.74;82.03
39823;BME280;25499;53.958;10.970;2022-09-12T18:25:24;101179.41;;;17.55;82.70
39823;BME280;25499;53.958;10.970;2022-09-12T18:27:50;101181.28;;;17.49;83.40
39823;BME280;25499;53.958;10.970;2022-09-12T18:30:15;101178.63;;;17.51;83.47
39823;BME280;25499;53.958;10.970;2022-09-12T18:32:44;101181.50;;;17.42;84.00
39823;BME280;25499;53.958;10.970;2022-09-12T18:35:09;101173.56;;;17.43;83.81
39823;BME280;25499;53.958;10.970;2022-09-12T18:37:34;101167.50;;;17.40;83.82
39823;BME280;25499;53.958;10.970;2022-09-12T18:40:00;101166.84;;;17.66;84.13
39823;BME280;25499;53.958;10.970;2022-09-12T18:42:25;101160.84;;;17.61;82.32
39823;BME280;25499;53.958;10.970;2022-09-12T18:44:51;101150.94;;;17.70;81.91
39823;BME280;25499;53.958;10.970;2022-09-12T18:47:16;101152.41;;;17.46;83.00
39823;BME280;25499;53.958;10.970;2022-09-12T18:49:41;101150.22;;;17.64;83.24
39823;BME280;25499;53.958;10.970;2022-09-12T18:52:06;101142.09;;;17.71;81.20
39823;BME280;25499;53.958;10.970;2022-09-12T18:54:32;101142.81;;;17.78;80.50
39823;BME280;25499;53.958;10.970;2022-09-12T18:56:58;101141.66;;;17.56;81.08
39823;BME280;25499;53.958;10.970;2022-09-12T18:59:23;101143.63;;;17.47;81.98
39823;BME280;25499;53.958;10.970;2022-09-12T19:01:48;101138.72;;;17.66;80.43
39823;BME280;25499;53.958;10.970;2022-09-12T19:04:14;101135.19;;;17.67;81.08
39823;BME280;25499;53.958;10.970;2022-09-12T19:06:45;101123.97;;;17.61;82.06
39823;BME280;25499;53.958;10.970;2022-09-12T19:09:12;101126.97;;;17.47;82.15